Time;durP1;ratioP1;P1;durP2;ratioP2;P2;SDS_P1;SDS_P2;PMS_P1;PMS_P2;Temp;Humidity;BMP_temperature;BMP_pressure;BME280_temperature;BME280_humidity;BME280_pressure;Samples;Min_cycle;Max_cycle;Signal;HPM_P1;HPM_P2
2022/09/09 00:02:15;;;;;;;9.60;4.90;;;;;;;;;;5051225;28;20210;-71
2022/09/09 00:05:08;;;;;;;11.27;4.65;;;;;;;;;;5051536;28;20040;-71
2022/09/09 00:07:48;;;;;;;9.30;5.47;;;;;;;;;;5051422;28;20040;-72
2022/09/09 00:10:31;;;;;;;11.48;5.70;;;;;;;;;;5049934;28;20049;-71
2022/09/09 00:13:18;;;;;;;10.70;4.57;;;;;;;;;;5051238;28;20052;-72
2022/09/09 00:16:00;;;;;;;12.60;6.07;;;;;;;;;;5051226;28;20393;-71
2022/09/09 00:18:48;;;;;;;10.60;5.35;;;;;;;;;;5051439;28;20045;-71
2022/09/09 00:21:18;;;;;;;11.27;5.07;;;;;;;;;;5050024;28;20415;-71
2022/09/09 00:23:53;;;;;;;12.77;5.70;;;;;;;;;;5051092;28;20487;-72
2022/09/09 00:26:40;;;;;;;10.13;4.75;;;;;;;;;;5050428;28;20053;-72
2022/09/09 00:29:12;;;;;;;12.38;5.53;;;;;;;;;;5051353;28;20045;-71
2022/09/09 00:31:43;;;;;;;9.07;4.78;;;;;;;;;;5049742;28;20554;-71
2022/09/09 00:34:19;;;;;;;10.38;5.50;;;;;;;;;;5050817;28;20049;-71
2022/09/09 00:36:55;;;;;;;8.60;5.72;;;;;;;;;;5051082;28;20053;-73
2022/09/09 00:39:40;;;;;;;12.57;5.65;;;;;;;;;;5050919;28;20048;-71
2022/09/09 00:42:41;;;;;;;10.38;5.93;;;;;;;;;;5050622;28;20052;-72
2022/09/09 00:45:15;;;;;;;11.23;6.32;;;;;;;;;;5049264;28;20049;-72
2022/09/09 00:47:52;;;;;;;9.55;6.22;;;;;;;;;;5050710;28;20052;-72
2022/09/09 00:50:49;;;;;;;12.38;6.28;;;;;;;;;;5050346;28;20412;-71
2022/09/09 00:53:34;;;;;;;10.85;6.10;;;;;;;;;;5051142;28;20059;-71
2022/09/09 00:56:12;;;;;;;9.32;5.15;;;;;;;;;;5051222;28;20059;-72
2022/09/09 00:59:14;;;;;;;12.07;5.18;;;;;;;;;;5049281;28;20053;-72
2022/09/09 01:01:44;;;;;;;9.23;5.68;;;;;;;;;;5050027;28;20056;-73
2022/09/09 01:04:24;;;;;;;8.93;5.03;;;;;;;;;;5048440;28;20060;-72
2022/09/09 01:07:09;;;;;;;7.90;5.82;;;;;;;;;;5050563;28;20068;-72
2022/09/09 01:09:59;;;;;;;11.05;5.50;;;;;;;;;;5048159;28;20045;-73
2022/09/09 01:12:41;;;;;;;14.65;6.20;;;;;;;;;;5049048;28;20045;-73
2022/09/09 01:15:26;;;;;;;8.95;5.65;;;;;;;;;;5048438;28;20064;-71
2022/09/09 01:18:10;;;;;;;11.23;5.75;;;;;;;;;;5090943;28;20044;-72
2022/09/09 01:21:28;;;;;;;9.65;5.60;;;;;;;;;;5092078;28;20064;-73
2022/09/09 01:24:48;;;;;;;10.00;6.53;;;;;;;;;;5076518;28;20059;-71
2022/09/09 01:27:27;;;;;;;9.05;5.68;;;;;;;;;;5050109;28;20047;-71
2022/09/09 01:29:59;;;;;;;11.10;5.40;;;;;;;;;;5069488;28;20060;-70
2022/09/09 01:32:41;;;;;;;7.70;5.25;;;;;;;;;;5069974;28;20513;-71
2022/09/09 01:35:31;;;;;;;7.82;5.93;;;;;;;;;;5068531;28;20053;-71
2022/09/09 01:38:03;;;;;;;11.50;5.65;;;;;;;;;;5068011;28;20534;-71
2022/09/09 01:40:35;;;;;;;10.93;6.80;;;;;;;;;;5092964;28;20044;-71
2022/09/09 01:43:06;;;;;;;9.23;6.43;;;;;;;;;;5068080;28;20525;-70
2022/09/09 01:45:39;;;;;;;13.27;6.88;;;;;;;;;;5067221;28;20077;-71
2022/09/09 01:48:09;;;;;;;10.30;6.35;;;;;;;;;;5067310;28;20059;-71
2022/09/09 01:50:51;;;;;;;15.13;6.78;;;;;;;;;;5067305;28;20064;-71
2022/09/09 01:53:22;;;;;;;13.13;7.35;;;;;;;;;;5068343;28;20844;-71
2022/09/09 01:56:15;;;;;;;13.05;6.22;;;;;;;;;;5069791;28;20048;-71
2022/09/09 01:59:05;;;;;;;11.95;7.57;;;;;;;;;;5068139;28;20049;-70
2022/09/09 02:02:08;;;;;;;15.05;6.05;;;;;;;;;;5057950;28;20134;-71
2022/09/09 02:04:52;;;;;;;13.15;7.00;;;;;;;;;;5067844;28;20048;-72
2022/09/09 02:07:31;;;;;;;13.88;7.90;;;;;;;;;;5101292;28;20049;-71
2022/09/09 02:10:19;;;;;;;13.70;8.82;;;;;;;;;;5067525;28;20059;-71
2022/09/09 02:13:10;;;;;;;11.90;7.90;;;;;;;;;;5067626;28;20056;-71
2022/09/09 02:15:51;;;;;;;17.48;7.28;;;;;;;;;;5101327;28;20064;-70
2022/09/09 02:18:42;;;;;;;11.93;7.80;;;;;;;;;;5068341;28;20044;-71
2022/09/09 02:21:14;;;;;;;16.98;7.95;;;;;;;;;;5067676;28;20052;-70
2022/09/09 02:23:46;;;;;;;15.32;9.32;;;;;;;;;;5069497;28;20044;-71
2022/09/09 02:26:21;;;;;;;14.65;10.88;;;;;;;;;;5068000;28;20052;-70
2022/09/09 02:28:59;;;;;;;18.35;11.20;;;;;;;;;;5067874;28;20088;-71
2022/09/09 02:31:30;;;;;;;19.95;13.57;;;;;;;;;;5069280;28;20043;-70
2022/09/09 02:34:08;;;;;;;24.17;13.52;;;;;;;;;;5101843;28;20056;-70
2022/09/09 02:36:43;;;;;;;20.77;11.63;;;;;;;;;;5067635;28;20059;-70
2022/09/09 02:39:13;;;;;;;19.23;11.98;;;;;;;;;;5068412;28;20052;-70
2022/09/09 02:41:43;;;;;;;18.83;12.93;;;;;;;;;;5067227;28;20411;-70
2022/09/09 02:44:19;;;;;;;25.27;13.20;;;;;;;;;;5051536;28;20052;-70
2022/09/09 02:47:14;;;;;;;19.92;12.80;;;;;;;;;;5067395;28;20048;-70
2022/09/09 02:50:08;;;;;;;22.13;15.05;;;;;;;;;;5067962;28;20045;-71
2022/09/09 02:53:00;;;;;;;26.27;16.45;;;;;;;;;;5067830;28;20048;-71
2022/09/09 02:55:42;;;;;;;25.10;15.90;;;;;;;;;;5068039;28;20049;-70
2022/09/09 02:58:19;;;;;;;23.50;13.95;;;;;;;;;;5067814;28;20056;-70
2022/09/09 03:00:57;;;;;;;22.17;14.73;;;;;;;;;;5067394;28;20525;-70
2022/09/09 03:03:30;;;;;;;22.55;14.27;;;;;;;;;;5067632;28;20053;-71
2022/09/09 03:06:03;;;;;;;22.52;13.80;;;;;;;;;;5067778;28;20048;-71
2022/09/09 03:08:34;;;;;;;27.48;14.68;;;;;;;;;;5066936;28;20075;-71
2022/09/09 03:11:04;;;;;;;24.48;15.18;;;;;;;;;;5068997;28;20048;-70
2022/09/09 03:13:37;;;;;;;24.88;16.75;;;;;;;;;;5067293;28;20633;-70
2022/09/09 03:16:07;;;;;;;22.17;14.73;;;;;;;;;;5068607;28;20485;-70
2022/09/09 03:18:44;;;;;;;25.77;15.15;;;;;;;;;;5101277;28;20048;-71
2022/09/09 03:21:15;;;;;;;27.30;17.50;;;;;;;;;;5068541;28;20048;-70
2022/09/09 03:23:45;;;;;;;28.60;16.25;;;;;;;;;;5101088;28;20049;-70
2022/09/09 03:26:16;;;;;;;27.92;13.88;;;;;;;;;;5069953;28;20052;-70
2022/09/09 03:28:47;;;;;;;23.85;16.02;;;;;;;;;;5087705;28;20053;-70
2022/09/09 03:31:19;;;;;;;29.40;16.38;;;;;;;;;;5072634;28;20052;-70
2022/09/09 03:33:49;;;;;;;21.35;13.68;;;;;;;;;;5072030;28;20064;-70
2022/09/09 03:36:21;;;;;;;22.58;13.82;;;;;;;;;;5104653;28;20056;-70
2022/09/09 03:38:51;;;;;;;24.95;16.55;;;;;;;;;;5070552;28;20056;-71
2022/09/09 03:41:24;;;;;;;22.52;15.45;;;;;;;;;;5072267;28;20052;-71
2022/09/09 03:43:54;;;;;;;26.13;17.23;;;;;;;;;;5070072;28;20049;-70
2022/09/09 03:46:26;;;;;;;23.60;14.30;;;;;;;;;;5070791;28;20064;-70
2022/09/09 03:48:57;;;;;;;24.80;14.63;;;;;;;;;;5071620;28;20495;-70
2022/09/09 03:51:27;;;;;;;24.80;14.73;;;;;;;;;;5070956;28;20059;-70
2022/09/09 03:53:58;;;;;;;23.83;15.07;;;;;;;;;;5070270;28;20075;-70
2022/09/09 03:56:29;;;;;;;31.25;17.50;;;;;;;;;;5069976;28;20060;-70
2022/09/09 03:59:00;;;;;;;25.88;18.63;;;;;;;;;;5071933;28;20049;-70
2022/09/09 04:01:30;;;;;;;25.17;15.73;;;;;;;;;;5069916;28;20067;-70
2022/09/09 04:04:02;;;;;;;22.10;14.00;;;;;;;;;;5070389;28;20057;-71
2022/09/09 04:06:32;;;;;;;22.35;14.57;;;;;;;;;;5071565;28;20542;-70
2022/09/09 04:09:04;;;;;;;25.95;16.90;;;;;;;;;;5103361;28;20044;-70
2022/09/09 04:11:36;;;;;;;22.92;15.70;;;;;;;;;;5071244;28;20045;-70
2022/09/09 04:14:07;;;;;;;25.05;15.15;;;;;;;;;;5069952;28;20048;-70
2022/09/09 04:16:37;;;;;;;27.23;15.93;;;;;;;;;;5069713;28;20476;-70
2022/09/09 04:19:10;;;;;;;22.75;16.27;;;;;;;;;;5103351;28;20081;-71
2022/09/09 04:21:42;;;;;;;23.50;15.90;;;;;;;;;;5103592;28;20053;-70
2022/09/09 04:24:12;;;;;;;27.65;14.38;;;;;;;;;;5086223;28;20099;-70
2022/09/09 04:26:42;;;;;;;27.20;16.55;;;;;;;;;;5070022;28;20064;-70
2022/09/09 04:29:13;;;;;;;27.02;16.80;;;;;;;;;;5069547;28;20064;-70
2022/09/09 04:31:44;;;;;;;22.40;14.05;;;;;;;;;;5069652;28;20052;-70
2022/09/09 04:34:14;;;;;;;21.77;13.30;;;;;;;;;;5070554;28;20053;-70
2022/09/09 04:36:45;;;;;;;23.15;15.73;;;;;;;;;;5069671;28;20510;-70
2022/09/09 04:39:15;;;;;;;26.42;15.65;;;;;;;;;;5071110;28;20045;-70
2022/09/09 04:41:45;;;;;;;22.20;14.25;;;;;;;;;;5070919;28;20106;-70
2022/09/09 04:44:15;;;;;;;23.35;14.65;;;;;;;;;;5102588;28;20045;-70
2022/09/09 04:46:45;;;;;;;25.10;14.77;;;;;;;;;;5070527;28;20057;-70
2022/09/09 04:49:15;;;;;;;22.60;15.05;;;;;;;;;;5086113;28;20400;-70
2022/09/09 04:51:46;;;;;;;22.83;14.25;;;;;;;;;;5069437;28;20063;-70
2022/09/09 04:54:18;;;;;;;20.05;13.43;;;;;;;;;;5069785;28;20048;-69
2022/09/09 04:56:51;;;;;;;18.10;12.68;;;;;;;;;;5069349;28;20056;-70
2022/09/09 04:59:22;;;;;;;20.52;12.07;;;;;;;;;;5069771;28;20468;-70
2022/09/09 05:01:55;;;;;;;20.88;13.10;;;;;;;;;;5068823;28;20049;-70
2022/09/09 05:04:25;;;;;;;15.95;12.00;;;;;;;;;;5069025;28;20059;-70
2022/09/09 05:06:56;;;;;;;18.10;12.23;;;;;;;;;;5070204;28;20044;-70
2022/09/09 05:09:26;;;;;;;18.60;12.00;;;;;;;;;;5069201;28;20052;-70
2022/09/09 05:11:57;;;;;;;22.45;13.05;;;;;;;;;;5068773;28;20048;-71
2022/09/09 05:14:31;;;;;;;18.33;12.05;;;;;;;;;;5069437;28;20056;-70
2022/09/09 05:17:02;;;;;;;19.38;12.63;;;;;;;;;;5070135;28;20037;-70
2022/09/09 05:19:33;;;;;;;14.85;11.68;;;;;;;;;;5102867;28;20496;-70
2022/09/09 05:22:04;;;;;;;19.25;11.38;;;;;;;;;;5070083;28;20063;-70
2022/09/09 05:24:44;;;;;;;18.65;11.20;;;;;;;;;;5068588;28;20056;-70
2022/09/09 05:27:14;;;;;;;16.27;10.70;;;;;;;;;;5070386;28;20515;-70
2022/09/09 05:29:45;;;;;;;17.17;12.00;;;;;;;;;;5069456;28;20040;-70
2022/09/09 05:32:16;;;;;;;16.52;11.65;;;;;;;;;;5068270;28;20051;-70
2022/09/09 05:34:49;;;;;;;19.67;11.32;;;;;;;;;;5102624;28;20052;-70
2022/09/09 05:37:19;;;;;;;15.27;10.65;;;;;;;;;;5068717;28;20063;-70
2022/09/09 05:39:50;;;;;;;18.77;12.55;;;;;;;;;;5068786;28;20530;-70
2022/09/09 05:42:21;;;;;;;15.65;12.50;;;;;;;;;;5068380;28;20415;-70
2022/09/09 05:44:54;;;;;;;16.63;11.32;;;;;;;;;;5101929;28;20049;-70
2022/09/09 05:47:27;;;;;;;19.17;12.10;;;;;;;;;;5102416;28;20146;-70
2022/09/09 05:49:57;;;;;;;19.17;12.07;;;;;;;;;;5067623;28;20403;-70
2022/09/09 05:52:28;;;;;;;18.92;12.77;;;;;;;;;;5102138;28;20045;-70
2022/09/09 05:54:59;;;;;;;16.65;10.50;;;;;;;;;;5068510;28;20055;-70
2022/09/09 05:57:30;;;;;;;16.33;10.68;;;;;;;;;;5068328;28;20399;-70
2022/09/09 06:00:00;;;;;;;15.25;11.18;;;;;;;;;;5101625;28;20155;-70
2022/09/09 06:02:41;;;;;;;17.48;12.00;;;;;;;;;;5070036;28;20056;-70
2022/09/09 06:05:15;;;;;;;14.50;10.07;;;;;;;;;;5069710;28;20051;-70
2022/09/09 06:07:46;;;;;;;15.40;10.38;;;;;;;;;;5067894;28;20566;-69
2022/09/09 06:10:17;;;;;;;15.30;9.93;;;;;;;;;;5068493;28;20060;-70
2022/09/09 06:12:47;;;;;;;18.10;11.48;;;;;;;;;;5101513;28;20056;-70
2022/09/09 06:15:17;;;;;;;14.23;9.68;;;;;;;;;;5067706;28;20053;-70
2022/09/09 06:17:47;;;;;;;14.25;9.25;;;;;;;;;;5069318;28;20048;-70
2022/09/09 06:20:17;;;;;;;15.25;8.57;;;;;;;;;;5067754;28;20064;-70
2022/09/09 06:22:48;;;;;;;13.85;8.13;;;;;;;;;;5069105;28;20044;-70
2022/09/09 06:25:18;;;;;;;14.05;9.88;;;;;;;;;;5101567;28;20052;-70
2022/09/09 06:27:49;;;;;;;17.27;9.15;;;;;;;;;;5067761;28;20056;-70
2022/09/09 06:30:19;;;;;;;14.50;9.18;;;;;;;;;;5068349;28;20056;-70
2022/09/09 06:32:49;;;;;;;13.32;9.73;;;;;;;;;;5069673;28;20506;-70
2022/09/09 06:35:21;;;;;;;15.65;8.32;;;;;;;;;;5069239;28;20080;-70
2022/09/09 06:37:51;;;;;;;16.60;8.10;;;;;;;;;;5069238;28;20106;-70
2022/09/09 06:40:21;;;;;;;14.32;8.80;;;;;;;;;;5069109;28;20049;-70
2022/09/09 06:42:51;;;;;;;11.43;8.88;;;;;;;;;;5069177;28;20048;-70
2022/09/09 06:45:33;;;;;;;13.05;8.10;;;;;;;;;;5067739;28;20040;-70
2022/09/09 06:48:03;;;;;;;13.05;8.27;;;;;;;;;;5067893;28;20056;-70
2022/09/09 06:50:33;;;;;;;11.73;8.15;;;;;;;;;;5069010;28;20052;-70
2022/09/09 06:53:03;;;;;;;16.17;8.68;;;;;;;;;;5101615;28;20049;-70
2022/09/09 06:55:33;;;;;;;13.07;9.68;;;;;;;;;;5067641;28;20048;-70
2022/09/09 06:58:09;;;;;;;10.43;7.88;;;;;;;;;;5067932;28;20527;-70
2022/09/09 07:00:39;;;;;;;10.43;8.10;;;;;;;;;;5068501;28;20049;-70
2022/09/09 07:03:11;;;;;;;15.98;9.48;;;;;;;;;;5072850;28;20041;-70
2022/09/09 07:05:40;;;;;;;13.68;9.27;;;;;;;;;;5072808;28;20403;-70
2022/09/09 07:08:11;;;;;;;23.40;9.27;;;;;;;;;;5071549;28;20673;-70
2022/09/09 07:10:42;;;;;;;17.33;9.20;;;;;;;;;;5071863;28;20067;-71
2022/09/09 07:13:15;;;;;;;12.48;8.15;;;;;;;;;;5105037;28;20051;-71
2022/09/09 07:15:46;;;;;;;14.77;10.00;;;;;;;;;;5071298;28;20052;-70
2022/09/09 07:18:15;;;;;;;12.85;9.35;;;;;;;;;;5071068;28;20053;-70
2022/09/09 07:20:55;;;;;;;12.02;9.38;;;;;;;;;;5072390;28;20414;-71
2022/09/09 07:23:27;;;;;;;15.23;8.15;;;;;;;;;;5105027;28;20045;-71
2022/09/09 07:26:07;;;;;;;15.50;10.00;;;;;;;;;;5072715;28;20036;-71
2022/09/09 07:28:38;;;;;;;16.05;9.38;;;;;;;;;;5073081;28;21195;-71
2022/09/09 07:31:20;;;;;;;16.55;10.00;;;;;;;;;;5071232;28;20411;-71
2022/09/09 07:33:51;;;;;;;17.77;9.68;;;;;;;;;;5104912;28;20056;-71
2022/09/09 07:36:26;;;;;;;14.23;8.75;;;;;;;;;;5104503;28;20053;-71
2022/09/09 07:39:09;;;;;;;13.55;9.52;;;;;;;;;;5071135;28;20048;-71
2022/09/09 07:41:46;;;;;;;13.85;8.85;;;;;;;;;;5070721;28;20502;-71
2022/09/09 07:44:22;;;;;;;14.88;10.38;;;;;;;;;;5071123;28;20400;-72
2022/09/09 07:46:59;;;;;;;12.68;9.20;;;;;;;;;;5104232;28;20060;-71
2022/09/09 07:49:36;;;;;;;13.77;8.27;;;;;;;;;;5070359;28;20048;-71
2022/09/09 07:52:07;;;;;;;17.52;10.82;;;;;;;;;;5070583;28;20407;-71
2022/09/09 07:54:41;;;;;;;17.98;9.02;;;;;;;;;;5070862;28;20056;-71
2022/09/09 07:57:13;;;;;;;18.15;10.77;;;;;;;;;;5103824;28;20427;-71
2022/09/09 07:59:44;;;;;;;14.95;8.95;;;;;;;;;;5069942;28;20048;-71
2022/09/09 08:02:14;;;;;;;16.27;10.32;;;;;;;;;;5070701;28;20064;-71
2022/09/09 08:04:46;;;;;;;15.68;9.68;;;;;;;;;;5070242;28;20055;-72
2022/09/09 08:07:19;;;;;;;21.52;10.55;;;;;;;;;;5070153;28;20048;-71
2022/09/09 08:09:55;;;;;;;19.45;11.25;;;;;;;;;;5071785;28;20037;-70
2022/09/09 08:12:32;;;;;;;21.75;11.13;;;;;;;;;;5069615;28;20419;-72
2022/09/09 08:15:05;;;;;;;21.25;12.43;;;;;;;;;;5087714;28;20407;-70
2022/09/09 08:17:37;;;;;;;16.85;9.90;;;;;;;;;;5071559;28;20044;-71
2022/09/09 08:20:09;;;;;;;21.08;10.30;;;;;;;;;;5069900;28;20053;-71
2022/09/09 08:22:41;;;;;;;15.98;10.75;;;;;;;;;;5103906;28;20515;-71
2022/09/09 08:25:13;;;;;;;13.85;9.95;;;;;;;;;;5069964;28;20056;-71
2022/09/09 08:27:43;;;;;;;18.33;11.55;;;;;;;;;;5069330;28;20060;-71
2022/09/09 08:30:13;;;;;;;16.60;10.32;;;;;;;;;;5103610;28;20049;-71
2022/09/09 08:32:44;;;;;;;14.95;9.45;;;;;;;;;;5071384;28;20044;-70
2022/09/09 08:35:15;;;;;;;18.30;10.68;;;;;;;;;;5069707;28;20059;-70
2022/09/09 08:37:45;;;;;;;17.48;12.88;;;;;;;;;;5071586;28;20033;-71
2022/09/09 08:40:28;;;;;;;19.55;12.32;;;;;;;;;;5069951;28;20055;-71
2022/09/09 08:43:02;;;;;;;20.33;13.00;;;;;;;;;;5103165;28;20048;-71
2022/09/09 08:45:56;;;;;;;16.00;12.20;;;;;;;;;;5069565;28;20051;-71
2022/09/09 08:48:56;;;;;;;16.63;12.30;;;;;;;;;;5049611;28;20052;-70
2022/09/09 08:51:31;;;;;;;15.73;12.57;;;;;;;;;;5069787;28;20564;-70
2022/09/09 08:54:03;;;;;;;18.33;11.48;;;;;;;;;;5102605;28;20056;-71
2022/09/09 08:56:34;;;;;;;15.02;11.15;;;;;;;;;;5069227;28;20059;-72
2022/09/09 08:59:05;;;;;;;17.25;13.25;;;;;;;;;;5070570;28;20051;-71
2022/09/09 09:01:50;;;;;;;22.60;11.27;;;;;;;;;;5069545;28;20060;-70
2022/09/09 09:04:45;;;;;;;19.40;11.63;;;;;;;;;;5069147;28;20063;-71
2022/09/09 09:07:31;;;;;;;18.58;12.90;;;;;;;;;;5085463;28;20419;-70
2022/09/09 09:10:38;;;;;;;19.83;11.23;;;;;;;;;;5068449;28;20530;-71
2022/09/09 09:13:27;;;;;;;17.10;11.23;;;;;;;;;;5069294;28;20499;-70
2022/09/09 09:16:10;;;;;;;22.98;12.90;;;;;;;;;;5068720;28;20403;-71
2022/09/09 09:18:40;;;;;;;16.98;11.20;;;;;;;;;;5070355;28;20048;-71
2022/09/09 09:21:23;;;;;;;18.75;11.43;;;;;;;;;;5102674;28;20503;-72
2022/09/09 09:24:01;;;;;;;19.35;12.77;;;;;;;;;;5069751;28;20047;-71
2022/09/09 09:26:35;;;;;;;17.95;12.23;;;;;;;;;;5068424;28;20052;-70
2022/09/09 09:29:16;;;;;;;26.10;14.63;;;;;;;;;;5068645;28;20052;-71
2022/09/09 09:31:56;;;;;;;23.27;12.90;;;;;;;;;;5102392;28;20533;-71
2022/09/09 09:34:28;;;;;;;21.35;12.65;;;;;;;;;;5102212;28;20048;-71
2022/09/09 09:37:01;;;;;;;19.92;12.63;;;;;;;;;;5068561;28;20075;-71
2022/09/09 09:39:39;;;;;;;23.30;12.60;;;;;;;;;;5069042;28;20052;-72
2022/09/09 09:42:29;;;;;;;25.13;15.15;;;;;;;;;;5101981;28;20422;-71
2022/09/09 09:45:35;;;;;;;34.85;13.70;;;;;;;;;;5070268;28;20033;-78
2022/09/09 09:48:09;;;;;;;28.17;13.57;;;;;;;;;;5069681;28;20044;-71
2022/09/09 09:50:58;;;;;;;22.83;14.32;;;;;;;;;;5069088;28;20065;-71
2022/09/09 09:53:29;;;;;;;26.02;16.08;;;;;;;;;;5069560;28;20362;-71
2022/09/09 09:56:14;;;;;;;17.50;12.35;;;;;;;;;;5069111;28;20056;-72
2022/09/09 09:58:45;;;;;;;35.60;16.20;;;;;;;;;;5068447;28;20048;-71
2022/09/09 10:01:27;;;;;;;27.58;15.75;;;;;;;;;;5068188;28;20064;-71
2022/09/09 10:04:15;;;;;;;24.75;14.93;;;;;;;;;;5101719;28;20067;-72
2022/09/09 10:06:46;;;;;;;22.63;15.10;;;;;;;;;;5101666;28;20063;-71
2022/09/09 10:09:28;;;;;;;23.70;14.70;;;;;;;;;;5069200;28;20052;-72
2022/09/09 10:12:16;;;;;;;18.13;12.25;;;;;;;;;;5069325;28;20050;-72
2022/09/09 10:15:10;;;;;;;22.65;13.27;;;;;;;;;;5069405;28;20377;-72
2022/09/09 10:18:15;;;;;;;24.80;13.40;;;;;;;;;;5068787;28;20049;-71
2022/09/09 10:20:51;;;;;;;18.30;11.05;;;;;;;;;;5029557;28;20049;-79
2022/09/09 10:23:47;;;;;;;18.67;12.75;;;;;;;;;;5062703;28;20049;-72
2022/09/09 10:26:30;;;;;;;18.13;11.15;;;;;;;;;;5069038;28;20040;-75
2022/09/09 10:29:16;;;;;;;22.00;11.43;;;;;;;;;;5069443;28;20052;-72
2022/09/09 10:32:02;;;;;;;28.98;16.60;;;;;;;;;;5069144;28;20048;-75
2022/09/09 10:34:57;;;;;;;29.60;19.58;;;;;;;;;;5068132;28;20049;-78
2022/09/09 10:37:57;;;;;;;32.30;17.38;;;;;;;;;;5073592;28;20048;-74
2022/09/09 10:40:30;;;;;;;;;;;;;;;;;;5073851;28;20045;-74
2022/09/09 10:43:17;;;;;;;29.75;20.10;;;;;;;;;;5072643;28;19927;-72
2022/09/09 10:46:12;;;;;;;32.58;21.75;;;;;;;;;;5072995;28;20059;-80
2022/09/09 10:48:58;;;;;;;35.33;20.95;;;;;;;;;;5072691;28;20056;-72
2022/09/09 10:51:40;;;;;;;32.95;22.33;;;;;;;;;;5064810;28;20040;-73
2022/09/09 10:54:30;;;;;;;29.15;19.15;;;;;;;;;;5052314;28;20368;-74
2022/09/09 10:57:12;;;;;;;32.08;19.77;;;;;;;;;;5052776;28;20044;-71
2022/09/09 10:59:47;;;;;;;28.23;17.05;;;;;;;;;;5052433;28;20056;-72
2022/09/09 11:02:26;;;;;;;;;;;;;;;;;;5052749;28;20482;-73
2022/09/09 11:05:21;;;;;;;30.88;18.65;;;;;;;;;;5052986;28;19924;-72
2022/09/09 11:08:19;;;;;;;30.13;20.17;;;;;;;;;;5052391;28;20534;-71
2022/09/09 11:11:07;;;;;;;32.95;19.08;;;;;;;;;;5053101;28;20507;-71
2022/09/09 11:13:43;;;;;;;31.67;18.60;;;;;;;;;;5052878;28;20037;-72
2022/09/09 11:16:23;;;;;;;30.63;19.83;;;;;;;;;;5052312;28;20052;-70
2022/09/09 11:19:02;;;;;;;32.53;21.13;;;;;;;;;;5051253;28;20044;-70
2022/09/09 11:21:39;;;;;;;35.88;21.50;;;;;;;;;;5051702;28;20606;-72
2022/09/09 11:24:25;;;;;;;35.63;24.90;;;;;;;;;;5051051;28;20053;-72
2022/09/09 11:27:07;;;;;;;30.92;20.15;;;;;;;;;;5052477;28;20479;-71
2022/09/09 11:29:53;;;;;;;33.75;22.23;;;;;;;;;;5050332;28;20057;-78
2022/09/09 11:33:08;;;;;;;33.00;23.90;;;;;;;;;;5051888;28;20399;-72
2022/09/09 11:36:07;;;;;;;32.15;18.85;;;;;;;;;;5051837;28;20049;-72
2022/09/09 11:38:52;;;;;;;32.22;21.30;;;;;;;;;;5052007;28;20049;-72
2022/09/09 11:41:22;;;;;;;32.20;21.50;;;;;;;;;;5051998;28;20040;-75
2022/09/09 11:43:53;;;;;;;37.47;22.67;;;;;;;;;;5051931;28;20051;-72
2022/09/09 11:46:35;;;;;;;33.42;23.65;;;;;;;;;;5051141;28;20057;-71
2022/09/09 11:49:07;;;;;;;30.77;19.23;;;;;;;;;;5051555;28;20507;-71
2022/09/09 11:51:37;;;;;;;34.00;23.73;;;;;;;;;;5051567;28;20051;-72
2022/09/09 11:54:25;;;;;;;35.10;23.00;;;;;;;;;;5051253;28;20049;-75
2022/09/09 11:56:56;;;;;;;38.92;24.55;;;;;;;;;;5051672;28;20050;-70
2022/09/09 11:59:31;;;;;;;31.50;20.55;;;;;;;;;;5052215;28;20049;-73
2022/09/09 12:02:08;;;;;;;31.33;20.55;;;;;;;;;;5052014;28;20518;-71
2022/09/09 12:04:55;;;;;;;31.65;19.75;;;;;;;;;;5052047;28;20048;-71
2022/09/09 12:07:29;;;;;;;31.55;20.00;;;;;;;;;;5051730;28;20496;-70
2022/09/09 12:10:19;;;;;;;28.77;20.85;;;;;;;;;;5051308;28;20049;-71
2022/09/09 12:12:50;;;;;;;32.20;21.90;;;;;;;;;;5051790;28;20057;-74
2022/09/09 12:15:24;;;;;;;35.00;19.83;;;;;;;;;;5051728;28;20068;-71
2022/09/09 12:17:57;;;;;;;31.58;19.88;;;;;;;;;;5051140;28;20067;-69
2022/09/09 12:20:35;;;;;;;26.48;18.40;;;;;;;;;;5049676;28;20049;-71
2022/09/09 12:23:14;;;;;;;29.80;19.73;;;;;;;;;;5049322;28;20067;-72
2022/09/09 12:25:56;;;;;;;26.83;17.83;;;;;;;;;;5051379;28;20479;-71
2022/09/09 12:29:04;;;;;;;28.35;20.27;;;;;;;;;;5050951;28;20476;-70
2022/09/09 12:31:56;;;;;;;25.52;18.25;;;;;;;;;;5050799;28;20041;-74
2022/09/09 12:34:35;;;;;;;32.00;17.85;;;;;;;;;;5050927;28;20052;-73
2022/09/09 12:37:34;;;;;;;32.10;20.27;;;;;;;;;;5050783;28;20044;-71
2022/09/09 12:40:18;;;;;;;31.75;18.98;;;;;;;;;;5050624;28;20523;-71
2022/09/09 12:42:49;;;;;;;28.02;20.73;;;;;;;;;;5050874;28;20037;-72
2022/09/09 12:45:24;;;;;;;26.58;17.88;;;;;;;;;;5049284;28;20446;-72
2022/09/09 12:48:03;;;;;;;28.63;20.58;;;;;;;;;;5050656;28;20063;-71
2022/09/09 12:50:49;;;;;;;28.73;17.98;;;;;;;;;;5050843;28;20049;-74
2022/09/09 12:53:30;;;;;;;27.98;18.80;;;;;;;;;;5050444;28;20048;-70
2022/09/09 12:56:06;;;;;;;30.95;21.63;;;;;;;;;;5049765;28;20049;-70
2022/09/09 12:58:38;;;;;;;33.08;21.38;;;;;;;;;;5050521;28;20523;-70
2022/09/09 13:01:30;;;;;;;28.60;19.55;;;;;;;;;;5050385;28;20120;-71
2022/09/09 13:04:00;;;;;;;30.30;21.05;;;;;;;;;;5050186;28;20495;-70
2022/09/09 13:06:34;;;;;;;25.05;18.85;;;;;;;;;;5050102;28;20395;-70
2022/09/09 13:09:04;;;;;;;27.45;20.08;;;;;;;;;;5050066;28;20045;-70
2022/09/09 13:11:46;;;;;;;28.83;20.40;;;;;;;;;;5050063;28;20067;-73
2022/09/09 13:14:39;;;;;;;24.98;18.02;;;;;;;;;;5049327;28;20040;-71
2022/09/09 13:17:22;;;;;;;27.60;17.73;;;;;;;;;;5050103;28;20080;-70
2022/09/09 13:19:54;;;;;;;28.80;20.27;;;;;;;;;;5049952;28;20049;-71
2022/09/09 13:22:35;;;;;;;29.83;19.55;;;;;;;;;;5049699;28;20045;-72
2022/09/09 13:25:12;;;;;;;27.92;20.48;;;;;;;;;;5048047;28;20511;-71
2022/09/09 13:27:53;;;;;;;25.85;18.52;;;;;;;;;;5049929;28;20049;-73
2022/09/09 13:30:28;;;;;;;25.15;17.60;;;;;;;;;;5049806;28;20048;-72
2022/09/09 13:33:05;;;;;;;33.38;19.23;;;;;;;;;;5050039;28;20041;-73
2022/09/09 13:35:46;;;;;;;27.77;18.27;;;;;;;;;;5047947;28;20423;-71
2022/09/09 13:38:17;;;;;;;25.10;15.82;;;;;;;;;;5049617;28;20748;-72
2022/09/09 13:41:01;;;;;;;29.88;18.55;;;;;;;;;;5049879;28;20044;-72
2022/09/09 13:43:37;;;;;;;26.92;18.20;;;;;;;;;;5049657;28;20052;-73
2022/09/09 13:46:31;;;;;;;29.35;17.60;;;;;;;;;;5049306;28;20049;-74
2022/09/09 13:49:09;;;;;;;27.25;17.15;;;;;;;;;;5049648;28;20037;-72
2022/09/09 13:51:42;;;;;;;31.70;22.30;;;;;;;;;;5049739;28;20527;-73
2022/09/09 13:54:18;;;;;;;23.77;15.02;;;;;;;;;;5049366;28;20498;-71
2022/09/09 13:56:49;;;;;;;26.60;16.02;;;;;;;;;;5048858;28;20049;-73
2022/09/09 13:59:21;;;;;;;22.05;15.82;;;;;;;;;;5049411;28;20045;-73
2022/09/09 14:01:52;;;;;;;29.27;16.50;;;;;;;;;;5049167;28;20512;-71
2022/09/09 14:04:21;;;;;;;25.27;17.70;;;;;;;;;;5049532;28;20041;-72
2022/09/09 14:06:51;;;;;;;26.42;19.20;;;;;;;;;;5049653;28;20052;-72
2022/09/09 14:09:21;;;;;;;39.67;19.73;;;;;;;;;;5048796;28;20060;-72
2022/09/09 14:11:51;;;;;;;25.85;17.52;;;;;;;;;;5047875;28;20048;-72
2022/09/09 14:14:21;;;;;;;27.90;19.50;;;;;;;;;;5049526;28;20426;-72
2022/09/09 14:16:51;;;;;;;25.33;15.57;;;;;;;;;;5049332;28;20056;-74
2022/09/09 14:19:20;;;;;;;24.35;15.82;;;;;;;;;;5049219;28;20048;-72
2022/09/09 14:21:50;;;;;;;23.77;16.98;;;;;;;;;;5049135;28;20392;-72
2022/09/09 14:24:20;;;;;;;29.58;16.63;;;;;;;;;;5049676;28;20041;-72
2022/09/09 14:26:50;;;;;;;22.73;15.90;;;;;;;;;;5049508;28;20041;-72
2022/09/09 14:29:19;;;;;;;22.52;16.08;;;;;;;;;;5049338;28;20053;-72
2022/09/09 14:31:49;;;;;;;24.65;15.80;;;;;;;;;;5049370;28;20037;-72
2022/09/09 14:34:19;;;;;;;28.17;17.30;;;;;;;;;;5049441;28;20045;-72
2022/09/09 14:36:49;;;;;;;26.88;18.10;;;;;;;;;;5049600;28;20431;-74
2022/09/09 14:39:19;;;;;;;24.40;17.20;;;;;;;;;;5049310;28;20044;-72
2022/09/09 14:41:49;;;;;;;24.45;17.00;;;;;;;;;;5048232;28;20044;-77
2022/09/09 14:44:18;;;;;;;29.48;17.58;;;;;;;;;;5048967;28;20080;-73
2022/09/09 14:46:50;;;;;;;26.27;17.20;;;;;;;;;;5048846;28;20059;-73
2022/09/09 14:49:21;;;;;;;26.88;17.60;;;;;;;;;;5049206;28;20056;-73
2022/09/09 14:51:50;;;;;;;25.20;17.75;;;;;;;;;;5049147;28;20060;-73
2022/09/09 14:54:22;;;;;;;29.00;17.55;;;;;;;;;;5049622;28;20514;-72
2022/09/09 14:56:52;;;;;;;23.85;18.30;;;;;;;;;;5049642;28;21066;-72
2022/09/09 14:59:22;;;;;;;25.30;18.40;;;;;;;;;;5048148;28;20057;-73
2022/09/09 15:01:52;;;;;;;28.65;19.08;;;;;;;;;;5047675;28;20068;-73
2022/09/09 15:04:23;;;;;;;25.42;18.33;;;;;;;;;;5049533;28;20045;-74
2022/09/09 15:06:53;;;;;;;28.80;18.42;;;;;;;;;;5049307;28;20045;-74
2022/09/09 15:09:24;;;;;;;27.00;18.52;;;;;;;;;;5049030;28;20056;-73
2022/09/09 15:11:53;;;;;;;29.42;19.05;;;;;;;;;;5049585;28;20068;-74
2022/09/09 15:14:23;;;;;;;33.15;20.42;;;;;;;;;;5049346;28;20518;-73
2022/09/09 15:16:53;;;;;;;24.90;18.40;;;;;;;;;;5047948;28;20049;-73
2022/09/09 15:19:23;;;;;;;31.05;19.50;;;;;;;;;;5049377;28;20511;-73